MET'MAP v2.0
soon released !

Expected late october,
this new version will be
more efficient, smarter,
and hosted on a brand new
server x3 powerfull...
...and still free !


Not compatible ?
Try the mobile version !

LOG IN : | Subscribe | Disclaimer | Who is Orbifly ? |
ICAO code :

TAF - EGNV Durham Tees valley - 16 Feb 2020 19:29 UTC - Data Source NOAA   


- Airport Elevation : 120 ft
- IATA code : MME
- No reported NOTAMs.


EGNV - Durham Tees valley

Latest METAR recorded : 2015/08/11 07:50 EGNV 110750Z 20004KT 170V250 9999 FEW020 15/10 Q1019
TAF TAF EGNV
Valid from the 16 at 18:00 until the 16 at 22:00 UTC


161711Z 1618/1622 23020G35KT 9999 SCT025
PROB30
TEMPO 1618/1622 24025G45KT 3500 +SHRA SHRAGS BKN012

Source NOAA
ATIS : +44 9012 018 111


MET'MAP, your aeronautical weather chart ! - Copyright ORBIFLY December 2007

Programming & Development : Alexandra Zaïnal
Co-Developer : Marc-Olivier Méhu
Technical & hardware support : Manuel Goepfert
Concept & Financing : Baudouin d'Aumeries